sensor_id;sensor_type;location;lat;lon;timestamp;P1;durP1;ratioP1;P2;durP2;ratioP2
3847;SDS011;1939;48.720;9.166;2022-11-20T00:02:02;10.73;;;5.00;;
3847;SDS011;1939;48.720;9.166;2022-11-20T00:04:27;9.17;;;4.93;;
3847;SDS011;1939;48.720;9.166;2022-11-20T00:06:52;8.37;;;5.30;;
3847;SDS011;1939;48.720;9.166;2022-11-20T00:09:18;8.67;;;5.40;;
3847;SDS011;1939;48.720;9.166;2022-11-20T00:11:43;7.47;;;5.20;;
3847;SDS011;1939;48.720;9.166;2022-11-20T00:14:08;8.50;;;4.77;;
3847;SDS011;1939;48.720;9.166;2022-11-20T00:16:33;8.40;;;5.10;;
3847;SDS011;1939;48.720;9.166;2022-11-20T00:18:59;10.07;;;5.17;;
3847;SDS011;1939;48.720;9.166;2022-11-20T00:21:25;5.47;;;3.83;;
3847;SDS011;1939;48.720;9.166;2022-11-20T00:23:51;7.67;;;5.07;;
3847;SDS011;1939;48.720;9.166;2022-11-20T00:26:17;7.37;;;4.80;;
3847;SDS011;1939;48.720;9.166;2022-11-20T00:28:43;8.60;;;4.87;;
3847;SDS011;1939;48.720;9.166;2022-11-20T00:31:13;5.90;;;4.63;;
3847;SDS011;1939;48.720;9.166;2022-11-20T00:33:38;6.63;;;5.00;;
3847;SDS011;1939;48.720;9.166;2022-11-20T00:36:05;7.50;;;4.80;;
3847;SDS011;1939;48.720;9.166;2022-11-20T00:38:31;6.13;;;4.50;;
3847;SDS011;1939;48.720;9.166;2022-11-20T00:40:57;11.00;;;4.70;;
3847;SDS011;1939;48.720;9.166;2022-11-20T00:43:22;10.37;;;5.80;;
3847;SDS011;1939;48.720;9.166;2022-11-20T00:45:47;6.33;;;4.53;;
3847;SDS011;1939;48.720;9.166;2022-11-20T00:48:12;8.77;;;5.40;;
3847;SDS011;1939;48.720;9.166;2022-11-20T00:50:38;8.67;;;6.07;;
3847;SDS011;1939;48.720;9.166;2022-11-20T00:53:03;8.00;;;4.97;;
3847;SDS011;1939;48.720;9.166;2022-11-20T00:55:29;5.67;;;4.23;;
3847;SDS011;1939;48.720;9.166;2022-11-20T00:57:54;5.93;;;4.40;;
3847;SDS011;1939;48.720;9.166;2022-11-20T01:00:19;8.50;;;5.20;;
3847;SDS011;1939;48.720;9.166;2022-11-20T01:02:44;9.00;;;5.30;;
3847;SDS011;1939;48.720;9.166;2022-11-20T01:05:09;7.80;;;4.30;;
3847;SDS011;1939;48.720;9.166;2022-11-20T01:07:35;6.90;;;4.87;;
3847;SDS011;1939;48.720;9.166;2022-11-20T01:10:00;12.20;;;4.77;;
3847;SDS011;1939;48.720;9.166;2022-11-20T01:12:25;9.60;;;4.60;;
3847;SDS011;1939;48.720;9.166;2022-11-20T01:14:50;6.90;;;4.27;;
3847;SDS011;1939;48.720;9.166;2022-11-20T01:17:15;7.03;;;4.47;;
3847;SDS011;1939;48.720;9.166;2022-11-20T01:19:41;8.17;;;4.40;;
3847;SDS011;1939;48.720;9.166;2022-11-20T01:22:06;6.67;;;4.43;;
3847;SDS011;1939;48.720;9.166;2022-11-20T01:24:31;5.90;;;4.27;;
3847;SDS011;1939;48.720;9.166;2022-11-20T01:26:56;7.90;;;3.93;;
3847;SDS011;1939;48.720;9.166;2022-11-20T01:29:22;5.83;;;3.70;;
3847;SDS011;1939;48.720;9.166;2022-11-20T01:31:48;6.00;;;3.87;;
3847;SDS011;1939;48.720;9.166;2022-11-20T01:34:14;4.67;;;3.33;;
3847;SDS011;1939;48.720;9.166;2022-11-20T01:36:40;6.80;;;3.93;;
3847;SDS011;1939;48.720;9.166;2022-11-20T01:39:07;5.30;;;3.20;;
3847;SDS011;1939;48.720;9.166;2022-11-20T01:41:34;6.17;;;3.63;;
3847;SDS011;1939;48.720;9.166;2022-11-20T01:44:20;7.43;;;3.27;;
3847;SDS011;1939;48.720;9.166;2022-11-20T01:47:20;4.73;;;3.20;;
3847;SDS011;1939;48.720;9.166;2022-11-20T01:49:38;4.00;;;2.90;;
3847;SDS011;1939;48.720;9.166;2022-11-20T01:52:04;4.47;;;3.10;;
3847;SDS011;1939;48.720;9.166;2022-11-20T01:54:38;13.03;;;3.37;;
3847;SDS011;1939;48.720;9.166;2022-11-20T01:57:04;4.50;;;3.07;;
3847;SDS011;1939;48.720;9.166;2022-11-20T01:59:31;6.87;;;4.10;;
3847;SDS011;1939;48.720;9.166;2022-11-20T02:01:57;5.93;;;4.10;;
3847;SDS011;1939;48.720;9.166;2022-11-20T02:04:22;7.67;;;3.50;;
3847;SDS011;1939;48.720;9.166;2022-11-20T02:07:06;10.57;;;4.60;;
3847;SDS011;1939;48.720;9.166;2022-11-20T02:09:31;8.90;;;3.70;;
3847;SDS011;1939;48.720;9.166;2022-11-20T02:11:56;6.87;;;3.40;;
3847;SDS011;1939;48.720;9.166;2022-11-20T02:14:22;5.83;;;3.73;;
3847;SDS011;1939;48.720;9.166;2022-11-20T02:16:48;7.43;;;4.13;;
3847;SDS011;1939;48.720;9.166;2022-11-20T02:19:17;7.17;;;4.77;;
3847;SDS011;1939;48.720;9.166;2022-11-20T02:21:53;6.70;;;3.90;;
3847;SDS011;1939;48.720;9.166;2022-11-20T02:24:21;14.30;;;4.10;;
3847;SDS011;1939;48.720;9.166;2022-11-20T02:27:00;6.17;;;4.40;;
3847;SDS011;1939;48.720;9.166;2022-11-20T02:29:28;4.63;;;3.63;;
3847;SDS011;1939;48.720;9.166;2022-11-20T02:31:55;6.50;;;3.80;;
3847;SDS011;1939;48.720;9.166;2022-11-20T02:34:22;7.10;;;4.17;;
3847;SDS011;1939;48.720;9.166;2022-11-20T02:36:47;7.70;;;4.73;;
3847;SDS011;1939;48.720;9.166;2022-11-20T02:39:13;16.10;;;4.13;;
3847;SDS011;1939;48.720;9.166;2022-11-20T02:41:41;6.60;;;4.83;;
3847;SDS011;1939;48.720;9.166;2022-11-20T02:44:07;13.40;;;5.40;;
3847;SDS011;1939;48.720;9.166;2022-11-20T02:46:32;6.63;;;3.87;;
3847;SDS011;1939;48.720;9.166;2022-11-20T02:48:58;8.50;;;4.80;;
3847;SDS011;1939;48.720;9.166;2022-11-20T02:51:23;8.37;;;4.73;;
3847;SDS011;1939;48.720;9.166;2022-11-20T02:53:49;9.33;;;5.10;;
3847;SDS011;1939;48.720;9.166;2022-11-20T02:56:14;7.27;;;4.60;;
3847;SDS011;1939;48.720;9.166;2022-11-20T02:58:40;5.17;;;4.30;;
3847;SDS011;1939;48.720;9.166;2022-11-20T03:01:05;7.53;;;4.20;;
3847;SDS011;1939;48.720;9.166;2022-11-20T03:03:30;9.80;;;5.80;;
3847;SDS011;1939;48.720;9.166;2022-11-20T03:05:58;9.03;;;5.17;;
3847;SDS011;1939;48.720;9.166;2022-11-20T03:08:23;10.43;;;5.07;;
3847;SDS011;1939;48.720;9.166;2022-11-20T03:10:48;17.40;;;5.60;;
3847;SDS011;1939;48.720;9.166;2022-11-20T03:13:13;5.83;;;4.80;;
3847;SDS011;1939;48.720;9.166;2022-11-20T03:15:39;11.50;;;4.90;;
3847;SDS011;1939;48.720;9.166;2022-11-20T03:18:04;6.80;;;4.90;;
3847;SDS011;1939;48.720;9.166;2022-11-20T03:20:29;11.80;;;5.30;;
3847;SDS011;1939;48.720;9.166;2022-11-20T03:22:54;9.37;;;6.40;;
3847;SDS011;1939;48.720;9.166;2022-11-20T03:25:20;10.00;;;5.63;;
3847;SDS011;1939;48.720;9.166;2022-11-20T03:27:45;10.43;;;5.60;;
3847;SDS011;1939;48.720;9.166;2022-11-20T03:30:10;7.33;;;5.20;;
3847;SDS011;1939;48.720;9.166;2022-11-20T03:32:36;6.90;;;4.80;;
3847;SDS011;1939;48.720;9.166;2022-11-20T03:35:01;14.00;;;7.43;;
3847;SDS011;1939;48.720;9.166;2022-11-20T03:37:26;5.80;;;4.63;;
3847;SDS011;1939;48.720;9.166;2022-11-20T03:39:52;7.93;;;5.23;;
3847;SDS011;1939;48.720;9.166;2022-11-20T03:42:17;6.47;;;4.33;;
3847;SDS011;1939;48.720;9.166;2022-11-20T03:45:01;8.77;;;5.10;;
3847;SDS011;1939;48.720;9.166;2022-11-20T03:47:26;6.33;;;4.63;;
3847;SDS011;1939;48.720;9.166;2022-11-20T03:49:51;8.10;;;4.73;;
3847;SDS011;1939;48.720;9.166;2022-11-20T03:52:16;9.17;;;5.03;;
3847;SDS011;1939;48.720;9.166;2022-11-20T03:54:42;7.73;;;5.40;;
3847;SDS011;1939;48.720;9.166;2022-11-20T03:57:07;7.80;;;5.27;;
3847;SDS011;1939;48.720;9.166;2022-11-20T03:59:32;16.13;;;6.30;;
3847;SDS011;1939;48.720;9.166;2022-11-20T04:01:57;7.77;;;5.10;;
3847;SDS011;1939;48.720;9.166;2022-11-20T04:04:22;7.53;;;4.80;;
3847;SDS011;1939;48.720;9.166;2022-11-20T04:06:48;13.10;;;6.33;;
3847;SDS011;1939;48.720;9.166;2022-11-20T04:09:13;9.43;;;4.90;;
3847;SDS011;1939;48.720;9.166;2022-11-20T04:11:39;9.50;;;6.03;;
3847;SDS011;1939;48.720;9.166;2022-11-20T04:14:06;8.93;;;5.70;;
3847;SDS011;1939;48.720;9.166;2022-11-20T04:16:33;9.80;;;5.83;;
3847;SDS011;1939;48.720;9.166;2022-11-20T04:18:59;10.23;;;6.80;;
3847;SDS011;1939;48.720;9.166;2022-11-20T04:21:25;9.33;;;5.70;;
3847;SDS011;1939;48.720;9.166;2022-11-20T04:23:50;13.03;;;6.70;;
3847;SDS011;1939;48.720;9.166;2022-11-20T04:26:17;10.60;;;5.93;;
3847;SDS011;1939;48.720;9.166;2022-11-20T04:28:43;12.37;;;7.20;;
3847;SDS011;1939;48.720;9.166;2022-11-20T04:31:09;9.60;;;5.80;;
3847;SDS011;1939;48.720;9.166;2022-11-20T04:33:35;8.07;;;5.60;;
3847;SDS011;1939;48.720;9.166;2022-11-20T04:36:01;6.53;;;5.30;;
3847;SDS011;1939;48.720;9.166;2022-11-20T04:38:27;10.70;;;6.00;;
3847;SDS011;1939;48.720;9.166;2022-11-20T04:40:55;6.97;;;5.10;;
3847;SDS011;1939;48.720;9.166;2022-11-20T04:43:20;7.50;;;4.80;;
3847;SDS011;1939;48.720;9.166;2022-11-20T04:45:50;18.33;;;4.90;;
3847;SDS011;1939;48.720;9.166;2022-11-20T04:48:15;7.60;;;5.30;;
3847;SDS011;1939;48.720;9.166;2022-11-20T04:50:40;7.77;;;4.93;;
3847;SDS011;1939;48.720;9.166;2022-11-20T04:53:06;7.63;;;5.10;;
3847;SDS011;1939;48.720;9.166;2022-11-20T04:55:31;10.83;;;5.50;;
3847;SDS011;1939;48.720;9.166;2022-11-20T04:57:56;8.00;;;5.00;;
3847;SDS011;1939;48.720;9.166;2022-11-20T05:00:21;6.00;;;4.47;;
3847;SDS011;1939;48.720;9.166;2022-11-20T05:02:47;6.60;;;4.70;;
3847;SDS011;1939;48.720;9.166;2022-11-20T05:05:12;5.93;;;4.50;;
3847;SDS011;1939;48.720;9.166;2022-11-20T05:07:37;6.20;;;4.40;;
3847;SDS011;1939;48.720;9.166;2022-11-20T05:10:03;7.50;;;3.97;;
3847;SDS011;1939;48.720;9.166;2022-11-20T05:12:28;7.47;;;4.57;;
3847;SDS011;1939;48.720;9.166;2022-11-20T05:14:53;7.60;;;5.33;;
3847;SDS011;1939;48.720;9.166;2022-11-20T05:17:18;9.00;;;4.03;;
3847;SDS011;1939;48.720;9.166;2022-11-20T05:19:44;7.90;;;4.17;;
3847;SDS011;1939;48.720;9.166;2022-11-20T05:22:09;5.00;;;4.00;;
3847;SDS011;1939;48.720;9.166;2022-11-20T05:24:34;8.60;;;4.10;;
3847;SDS011;1939;48.720;9.166;2022-11-20T05:26:59;6.03;;;4.37;;
3847;SDS011;1939;48.720;9.166;2022-11-20T05:29:25;8.90;;;4.40;;
3847;SDS011;1939;48.720;9.166;2022-11-20T05:31:50;6.97;;;4.70;;
3847;SDS011;1939;48.720;9.166;2022-11-20T05:34:15;5.40;;;4.40;;
3847;SDS011;1939;48.720;9.166;2022-11-20T05:36:40;8.13;;;4.73;;
3847;SDS011;1939;48.720;9.166;2022-11-20T05:39:05;5.30;;;3.77;;
3847;SDS011;1939;48.720;9.166;2022-11-20T05:41:32;12.53;;;4.07;;
3847;SDS011;1939;48.720;9.166;2022-11-20T05:43:57;15.93;;;4.67;;
3847;SDS011;1939;48.720;9.166;2022-11-20T05:46:23;6.77;;;4.07;;
3847;SDS011;1939;48.720;9.166;2022-11-20T05:48:48;6.60;;;4.00;;
3847;SDS011;1939;48.720;9.166;2022-11-20T05:51:15;6.80;;;4.10;;
3847;SDS011;1939;48.720;9.166;2022-11-20T05:53:40;5.70;;;4.10;;
3847;SDS011;1939;48.720;9.166;2022-11-20T05:56:07;7.47;;;3.83;;
3847;SDS011;1939;48.720;9.166;2022-11-20T05:58:35;4.70;;;3.67;;
3847;SDS011;1939;48.720;9.166;2022-11-20T06:01:11;5.43;;;3.70;;
3847;SDS011;1939;48.720;9.166;2022-11-20T06:03:37;5.73;;;3.60;;
3847;SDS011;1939;48.720;9.166;2022-11-20T06:06:03;6.17;;;4.00;;
3847;SDS011;1939;48.720;9.166;2022-11-20T06:08:29;7.07;;;4.00;;
3847;SDS011;1939;48.720;9.166;2022-11-20T06:10:54;9.80;;;4.13;;
3847;SDS011;1939;48.720;9.166;2022-11-20T06:13:19;5.67;;;3.90;;
3847;SDS011;1939;48.720;9.166;2022-11-20T06:15:48;6.17;;;3.97;;
3847;SDS011;1939;48.720;9.166;2022-11-20T06:18:13;7.80;;;5.17;;
3847;SDS011;1939;48.720;9.166;2022-11-20T06:20:38;6.00;;;3.50;;
3847;SDS011;1939;48.720;9.166;2022-11-20T06:23:04;9.43;;;4.90;;
3847;SDS011;1939;48.720;9.166;2022-11-20T06:25:29;7.10;;;3.70;;
3847;SDS011;1939;48.720;9.166;2022-11-20T06:27:54;7.00;;;4.10;;
3847;SDS011;1939;48.720;9.166;2022-11-20T06:30:19;5.33;;;3.90;;
3847;SDS011;1939;48.720;9.166;2022-11-20T06:32:44;5.43;;;3.60;;
3847;SDS011;1939;48.720;9.166;2022-11-20T06:35:10;6.07;;;3.80;;
3847;SDS011;1939;48.720;9.166;2022-11-20T06:37:35;4.13;;;3.07;;
3847;SDS011;1939;48.720;9.166;2022-11-20T06:40:00;6.90;;;4.13;;
3847;SDS011;1939;48.720;9.166;2022-11-20T06:42:25;7.83;;;3.67;;
3847;SDS011;1939;48.720;9.166;2022-11-20T06:44:50;7.27;;;3.60;;
3847;SDS011;1939;48.720;9.166;2022-11-20T06:47:16;7.33;;;4.23;;
3847;SDS011;1939;48.720;9.166;2022-11-20T06:49:41;6.80;;;3.60;;
3847;SDS011;1939;48.720;9.166;2022-11-20T06:52:06;9.97;;;4.93;;
3847;SDS011;1939;48.720;9.166;2022-11-20T06:54:31;5.00;;;3.80;;
3847;SDS011;1939;48.720;9.166;2022-11-20T06:56:56;5.80;;;4.13;;
3847;SDS011;1939;48.720;9.166;2022-11-20T06:59:22;7.50;;;5.07;;
3847;SDS011;1939;48.720;9.166;2022-11-20T07:01:47;6.60;;;4.93;;
3847;SDS011;1939;48.720;9.166;2022-11-20T07:04:12;6.03;;;3.80;;
3847;SDS011;1939;48.720;9.166;2022-11-20T07:06:37;5.93;;;4.10;;
3847;SDS011;1939;48.720;9.166;2022-11-20T07:09:03;5.40;;;4.17;;
3847;SDS011;1939;48.720;9.166;2022-11-20T07:11:28;8.47;;;5.03;;
3847;SDS011;1939;48.720;9.166;2022-11-20T07:13:53;5.40;;;3.93;;
3847;SDS011;1939;48.720;9.166;2022-11-20T07:16:18;9.63;;;4.63;;
3847;SDS011;1939;48.720;9.166;2022-11-20T07:18:44;6.83;;;4.20;;
3847;SDS011;1939;48.720;9.166;2022-11-20T07:21:09;9.07;;;4.20;;
3847;SDS011;1939;48.720;9.166;2022-11-20T07:23:35;8.40;;;3.90;;
3847;SDS011;1939;48.720;9.166;2022-11-20T07:26:08;9.33;;;4.97;;
3847;SDS011;1939;48.720;9.166;2022-11-20T07:28:34;6.60;;;4.20;;
3847;SDS011;1939;48.720;9.166;2022-11-20T07:30:59;7.43;;;3.97;;
3847;SDS011;1939;48.720;9.166;2022-11-20T07:33:25;8.53;;;5.93;;
3847;SDS011;1939;48.720;9.166;2022-11-20T07:35:50;5.07;;;3.87;;
3847;SDS011;1939;48.720;9.166;2022-11-20T07:38:15;5.67;;;3.47;;
3847;SDS011;1939;48.720;9.166;2022-11-20T07:40:40;7.30;;;4.53;;
3847;SDS011;1939;48.720;9.166;2022-11-20T07:43:06;7.53;;;3.70;;
3847;SDS011;1939;48.720;9.166;2022-11-20T07:45:31;4.57;;;3.40;;
3847;SDS011;1939;48.720;9.166;2022-11-20T07:47:56;4.23;;;3.13;;
3847;SDS011;1939;48.720;9.166;2022-11-20T07:50:21;6.87;;;3.00;;
3847;SDS011;1939;48.720;9.166;2022-11-20T07:52:46;4.90;;;4.00;;
3847;SDS011;1939;48.720;9.166;2022-11-20T07:55:12;5.40;;;2.43;;
3847;SDS011;1939;48.720;9.166;2022-11-20T07:57:37;4.70;;;2.63;;
3847;SDS011;1939;48.720;9.166;2022-11-20T08:00:03;3.20;;;1.90;;
3847;SDS011;1939;48.720;9.166;2022-11-20T08:02:29;4.90;;;1.70;;
3847;SDS011;1939;48.720;9.166;2022-11-20T08:04:54;4.53;;;2.30;;
3847;SDS011;1939;48.720;9.166;2022-11-20T08:07:19;3.90;;;2.70;;
3847;SDS011;1939;48.720;9.166;2022-11-20T08:09:45;2.93;;;2.53;;
3847;SDS011;1939;48.720;9.166;2022-11-20T08:12:16;3.30;;;2.23;;
3847;SDS011;1939;48.720;9.166;2022-11-20T08:15:01;3.60;;;2.90;;
3847;SDS011;1939;48.720;9.166;2022-11-20T08:17:26;4.30;;;2.60;;
3847;SDS011;1939;48.720;9.166;2022-11-20T08:19:51;3.77;;;2.70;;
3847;SDS011;1939;48.720;9.166;2022-11-20T08:22:16;3.90;;;2.70;;
3847;SDS011;1939;48.720;9.166;2022-11-20T08:24:42;2.60;;;2.30;;
3847;SDS011;1939;48.720;9.166;2022-11-20T08:27:07;4.93;;;3.07;;
3847;SDS011;1939;48.720;9.166;2022-11-20T08:29:33;4.53;;;3.20;;
3847;SDS011;1939;48.720;9.166;2022-11-20T08:31:58;4.30;;;2.63;;
3847;SDS011;1939;48.720;9.166;2022-11-20T08:34:23;3.60;;;2.30;;
3847;SDS011;1939;48.720;9.166;2022-11-20T08:36:48;4.33;;;2.17;;
3847;SDS011;1939;48.720;9.166;2022-11-20T08:39:14;2.30;;;2.07;;
3847;SDS011;1939;48.720;9.166;2022-11-20T08:41:39;3.73;;;2.93;;
3847;SDS011;1939;48.720;9.166;2022-11-20T08:44:05;3.60;;;2.67;;
3847;SDS011;1939;48.720;9.166;2022-11-20T08:46:39;5.70;;;2.20;;
3847;SDS011;1939;48.720;9.166;2022-11-20T08:49:06;2.67;;;2.47;;
3847;SDS011;1939;48.720;9.166;2022-11-20T08:51:32;3.53;;;2.50;;
3847;SDS011;1939;48.720;9.166;2022-11-20T08:53:57;4.77;;;2.30;;
3847;SDS011;1939;48.720;9.166;2022-11-20T08:56:23;1.57;;;1.47;;
3847;SDS011;1939;48.720;9.166;2022-11-20T08:58:49;1.83;;;1.40;;
3847;SDS011;1939;48.720;9.166;2022-11-20T09:01:14;1.70;;;1.43;;
3847;SDS011;1939;48.720;9.166;2022-11-20T09:03:40;2.23;;;1.67;;
3847;SDS011;1939;48.720;9.166;2022-11-20T09:06:05;1.30;;;1.07;;
3847;SDS011;1939;48.720;9.166;2022-11-20T09:08:31;2.90;;;1.77;;
3847;SDS011;1939;48.720;9.166;2022-11-20T09:10:57;5.40;;;1.93;;
3847;SDS011;1939;48.720;9.166;2022-11-20T09:13:23;1.57;;;1.40;;
3847;SDS011;1939;48.720;9.166;2022-11-20T09:15:58;1.90;;;1.50;;
3847;SDS011;1939;48.720;9.166;2022-11-20T09:18:24;2.37;;;2.07;;
3847;SDS011;1939;48.720;9.166;2022-11-20T09:20:49;2.17;;;1.73;;
3847;SDS011;1939;48.720;9.166;2022-11-20T09:23:15;1.20;;;1.10;;
3847;SDS011;1939;48.720;9.166;2022-11-20T09:25:40;1.90;;;1.40;;
3847;SDS011;1939;48.720;9.166;2022-11-20T09:28:05;2.10;;;1.70;;
3847;SDS011;1939;48.720;9.166;2022-11-20T09:30:30;1.43;;;1.20;;
3847;SDS011;1939;48.720;9.166;2022-11-20T09:32:56;1.30;;;0.90;;
3847;SDS011;1939;48.720;9.166;2022-11-20T09:35:21;1.27;;;0.87;;
3847;SDS011;1939;48.720;9.166;2022-11-20T09:37:46;1.83;;;1.23;;
3847;SDS011;1939;48.720;9.166;2022-11-20T09:40:34;1.27;;;1.00;;
3847;SDS011;1939;48.720;9.166;2022-11-20T09:43:09;1.27;;;0.80;;
3847;SDS011;1939;48.720;9.166;2022-11-20T09:50:47;1.20;;;1.00;;
3847;SDS011;1939;48.720;9.166;2022-11-20T09:55:42;1.90;;;0.83;;
3847;SDS011;1939;48.720;9.166;2022-11-20T09:58:24;1.00;;;0.87;;
3847;SDS011;1939;48.720;9.166;2022-11-20T10:00:50;2.30;;;1.00;;
3847;SDS011;1939;48.720;9.166;2022-11-20T10:03:29;0.80;;;0.60;;
3847;SDS011;1939;48.720;9.166;2022-11-20T10:06:00;3.03;;;0.97;;
3847;SDS011;1939;48.720;9.166;2022-11-20T10:08:28;1.30;;;0.87;;
3847;SDS011;1939;48.720;9.166;2022-11-20T10:11:14;1.73;;;0.90;;
3847;SDS011;1939;48.720;9.166;2022-11-20T10:16:11;0.80;;;0.60;;
3847;SDS011;1939;48.720;9.166;2022-11-20T10:26:17;2.03;;;1.03;;
3847;SDS011;1939;48.720;9.166;2022-11-20T10:31:27;1.03;;;0.70;;
3847;SDS011;1939;48.720;9.166;2022-11-20T10:33:54;1.00;;;0.80;;
3847;SDS011;1939;48.720;9.166;2022-11-20T10:36:26;1.00;;;0.80;;
3847;SDS011;1939;48.720;9.166;2022-11-20T10:41:25;6.83;;;3.63;;
3847;SDS011;1939;48.720;9.166;2022-11-20T10:43:58;3.00;;;2.00;;
3847;SDS011;1939;48.720;9.166;2022-11-20T10:46:25;6.17;;;0.90;;
3847;SDS011;1939;48.720;9.166;2022-11-20T10:48:55;1.67;;;0.90;;
3847;SDS011;1939;48.720;9.166;2022-11-20T10:56:25;2.07;;;1.23;;
3847;SDS011;1939;48.720;9.166;2022-11-20T11:01:41;1.87;;;1.20;;
3847;SDS011;1939;48.720;9.166;2022-11-20T11:04:08;2.83;;;1.30;;
3847;SDS011;1939;48.720;9.166;2022-11-20T11:06:40;1.80;;;1.10;;
3847;SDS011;1939;48.720;9.166;2022-11-20T11:09:15;1.10;;;1.00;;
3847;SDS011;1939;48.720;9.166;2022-11-20T11:11:41;1.20;;;1.10;;
3847;SDS011;1939;48.720;9.166;2022-11-20T11:14:07;2.93;;;1.27;;
3847;SDS011;1939;48.720;9.166;2022-11-20T11:16:32;4.33;;;1.87;;
3847;SDS011;1939;48.720;9.166;2022-11-20T11:21:56;2.10;;;1.27;;
3847;SDS011;1939;48.720;9.166;2022-11-20T11:24:25;3.23;;;1.53;;
3847;SDS011;1939;48.720;9.166;2022-11-20T11:26:52;1.90;;;1.50;;
3847;SDS011;1939;48.720;9.166;2022-11-20T11:29:17;1.53;;;1.30;;
3847;SDS011;1939;48.720;9.166;2022-11-20T11:31:43;1.67;;;1.30;;
3847;SDS011;1939;48.720;9.166;2022-11-20T11:34:12;3.20;;;1.57;;
3847;SDS011;1939;48.720;9.166;2022-11-20T11:36:37;3.57;;;1.57;;
3847;SDS011;1939;48.720;9.166;2022-11-20T11:39:03;3.73;;;1.47;;
3847;SDS011;1939;48.720;9.166;2022-11-20T11:41:30;2.80;;;1.40;;
3847;SDS011;1939;48.720;9.166;2022-11-20T11:44:01;4.17;;;1.17;;
3847;SDS011;1939;48.720;9.166;2022-11-20T11:46:52;2.13;;;1.30;;
3847;SDS011;1939;48.720;9.166;2022-11-20T11:49:18;1.63;;;1.40;;
3847;SDS011;1939;48.720;9.166;2022-11-20T11:51:51;1.53;;;1.00;;
3847;SDS011;1939;48.720;9.166;2022-11-20T11:54:27;3.40;;;1.40;;
3847;SDS011;1939;48.720;9.166;2022-11-20T11:56:54;2.90;;;1.20;;
3847;SDS011;1939;48.720;9.166;2022-11-20T12:02:08;2.23;;;1.57;;
3847;SDS011;1939;48.720;9.166;2022-11-20T12:04:42;7.33;;;2.47;;
3847;SDS011;1939;48.720;9.166;2022-11-20T12:07:13;5.83;;;2.73;;
3847;SDS011;1939;48.720;9.166;2022-11-20T12:09:43;4.37;;;1.70;;
3847;SDS011;1939;48.720;9.166;2022-11-20T12:12:16;9.43;;;1.70;;
3847;SDS011;1939;48.720;9.166;2022-11-20T12:14:42;6.33;;;2.07;;
3847;SDS011;1939;48.720;9.166;2022-11-20T12:17:10;1.83;;;1.40;;
3847;SDS011;1939;48.720;9.166;2022-11-20T12:19:35;8.43;;;2.83;;
3847;SDS011;1939;48.720;9.166;2022-11-20T12:24:47;5.33;;;2.93;;
3847;SDS011;1939;48.720;9.166;2022-11-20T12:30:01;2.40;;;1.60;;
3847;SDS011;1939;48.720;9.166;2022-11-20T12:32:31;2.87;;;1.50;;
3847;SDS011;1939;48.720;9.166;2022-11-20T12:40:32;1.57;;;0.93;;
3847;SDS011;1939;48.720;9.166;2022-11-20T12:43:05;1.33;;;1.03;;
3847;SDS011;1939;48.720;9.166;2022-11-20T12:46:05;3.27;;;1.30;;
3847;SDS011;1939;48.720;9.166;2022-11-20T12:51:18;1.13;;;0.90;;
3847;SDS011;1939;48.720;9.166;2022-11-20T12:56:41;2.17;;;1.30;;
3847;SDS011;1939;48.720;9.166;2022-11-20T12:59:23;1.80;;;1.10;;
3847;SDS011;1939;48.720;9.166;2022-11-20T13:01:56;1.23;;;0.90;;
3847;SDS011;1939;48.720;9.166;2022-11-20T13:07:01;1.10;;;1.00;;
3847;SDS011;1939;48.720;9.166;2022-11-20T13:09:27;4.13;;;1.80;;
3847;SDS011;1939;48.720;9.166;2022-11-20T13:14:30;5.20;;;1.10;;
3847;SDS011;1939;48.720;9.166;2022-11-20T13:19:28;5.20;;;1.67;;
3847;SDS011;1939;48.720;9.166;2022-11-20T13:21:54;1.87;;;0.80;;
3847;SDS011;1939;48.720;9.166;2022-11-20T13:26:47;1.33;;;0.80;;
3847;SDS011;1939;48.720;9.166;2022-11-20T13:29:16;1.53;;;0.90;;
3847;SDS011;1939;48.720;9.166;2022-11-20T13:31:46;0.90;;;0.80;;
3847;SDS011;1939;48.720;9.166;2022-11-20T13:34:12;2.97;;;0.90;;
3847;SDS011;1939;48.720;9.166;2022-11-20T13:36:38;2.53;;;0.60;;
3847;SDS011;1939;48.720;9.166;2022-11-20T13:39:23;3.03;;;0.80;;
3847;SDS011;1939;48.720;9.166;2022-11-20T13:41:53;3.63;;;1.10;;
3847;SDS011;1939;48.720;9.166;2022-11-20T13:44:35;2.30;;;1.03;;
3847;SDS011;1939;48.720;9.166;2022-11-20T13:47:03;1.70;;;0.83;;
3847;SDS011;1939;48.720;9.166;2022-11-20T13:49:32;2.17;;;1.40;;
3847;SDS011;1939;48.720;9.166;2022-11-20T13:52:08;1.97;;;0.97;;
3847;SDS011;1939;48.720;9.166;2022-11-20T13:54:55;1.17;;;0.70;;
3847;SDS011;1939;48.720;9.166;2022-11-20T14:02:35;1.33;;;0.80;;
3847;SDS011;1939;48.720;9.166;2022-11-20T14:05:00;1.70;;;1.60;;
3847;SDS011;1939;48.720;9.166;2022-11-20T14:07:36;1.80;;;1.10;;
3847;SDS011;1939;48.720;9.166;2022-11-20T14:10:02;1.90;;;1.27;;
3847;SDS011;1939;48.720;9.166;2022-11-20T14:12:29;4.27;;;2.57;;
3847;SDS011;1939;48.720;9.166;2022-11-20T14:14:54;6.10;;;3.60;;
3847;SDS011;1939;48.720;9.166;2022-11-20T14:19:54;7.70;;;1.70;;
3847;SDS011;1939;48.720;9.166;2022-11-20T14:22:24;2.20;;;1.30;;
3847;SDS011;1939;48.720;9.166;2022-11-20T14:25:00;5.07;;;1.40;;
3847;SDS011;1939;48.720;9.166;2022-11-20T14:27:25;2.83;;;1.40;;
3847;SDS011;1939;48.720;9.166;2022-11-20T14:29:50;3.07;;;1.37;;
3847;SDS011;1939;48.720;9.166;2022-11-20T14:32:19;2.10;;;1.10;;
3847;SDS011;1939;48.720;9.166;2022-11-20T14:34:46;2.40;;;1.10;;
3847;SDS011;1939;48.720;9.166;2022-11-20T14:37:12;1.33;;;0.93;;
3847;SDS011;1939;48.720;9.166;2022-11-20T14:39:46;1.73;;;1.00;;
3847;SDS011;1939;48.720;9.166;2022-11-20T14:42:16;4.23;;;1.90;;
3847;SDS011;1939;48.720;9.166;2022-11-20T14:44:41;2.33;;;1.60;;
3847;SDS011;1939;48.720;9.166;2022-11-20T14:47:08;2.23;;;1.37;;
3847;SDS011;1939;48.720;9.166;2022-11-20T14:49:35;2.50;;;1.13;;
3847;SDS011;1939;48.720;9.166;2022-11-20T14:52:09;3.23;;;0.90;;
3847;SDS011;1939;48.720;9.166;2022-11-20T14:54:42;1.83;;;1.10;;
3847;SDS011;1939;48.720;9.166;2022-11-20T14:57:18;2.63;;;1.30;;
3847;SDS011;1939;48.720;9.166;2022-11-20T14:59:44;1.60;;;1.20;;
3847;SDS011;1939;48.720;9.166;2022-11-20T15:02:10;3.97;;;1.53;;
3847;SDS011;1939;48.720;9.166;2022-11-20T15:04:49;2.43;;;2.00;;
3847;SDS011;1939;48.720;9.166;2022-11-20T15:07:24;3.03;;;1.87;;
3847;SDS011;1939;48.720;9.166;2022-11-20T15:10:00;4.83;;;1.57;;
3847;SDS011;1939;48.720;9.166;2022-11-20T15:12:25;5.30;;;1.03;;
3847;SDS011;1939;48.720;9.166;2022-11-20T15:14:50;3.10;;;1.50;;
3847;SDS011;1939;48.720;9.166;2022-11-20T15:17:16;2.83;;;2.37;;
3847;SDS011;1939;48.720;9.166;2022-11-20T15:19:41;4.93;;;2.50;;
3847;SDS011;1939;48.720;9.166;2022-11-20T15:22:11;4.20;;;1.97;;
3847;SDS011;1939;48.720;9.166;2022-11-20T15:24:38;4.27;;;2.40;;
3847;SDS011;1939;48.720;9.166;2022-11-20T15:27:03;6.53;;;2.40;;
3847;SDS011;1939;48.720;9.166;2022-11-20T15:29:28;3.97;;;1.37;;
3847;SDS011;1939;48.720;9.166;2022-11-20T15:31:53;6.20;;;4.13;;
3847;SDS011;1939;48.720;9.166;2022-11-20T15:34:19;6.80;;;4.80;;
3847;SDS011;1939;48.720;9.166;2022-11-20T15:36:44;5.60;;;3.40;;
3847;SDS011;1939;48.720;9.166;2022-11-20T15:39:10;8.40;;;4.47;;
3847;SDS011;1939;48.720;9.166;2022-11-20T15:41:36;7.57;;;4.57;;
3847;SDS011;1939;48.720;9.166;2022-11-20T15:44:02;7.73;;;3.07;;
3847;SDS011;1939;48.720;9.166;2022-11-20T15:46:28;5.80;;;1.90;;
3847;SDS011;1939;48.720;9.166;2022-11-20T15:48:54;4.60;;;3.33;;
3847;SDS011;1939;48.720;9.166;2022-11-20T15:51:28;4.77;;;2.60;;
3847;SDS011;1939;48.720;9.166;2022-11-20T15:53:54;4.40;;;1.97;;
3847;SDS011;1939;48.720;9.166;2022-11-20T15:56:19;2.10;;;1.50;;
3847;SDS011;1939;48.720;9.166;2022-11-20T15:58:44;1.23;;;1.13;;
3847;SDS011;1939;48.720;9.166;2022-11-20T16:01:10;2.73;;;2.20;;
3847;SDS011;1939;48.720;9.166;2022-11-20T16:03:36;4.60;;;2.97;;
3847;SDS011;1939;48.720;9.166;2022-11-20T16:06:01;5.53;;;2.90;;
3847;SDS011;1939;48.720;9.166;2022-11-20T16:08:26;3.80;;;2.47;;
3847;SDS011;1939;48.720;9.166;2022-11-20T16:10:52;3.30;;;2.17;;
3847;SDS011;1939;48.720;9.166;2022-11-20T16:13:17;5.53;;;2.80;;
3847;SDS011;1939;48.720;9.166;2022-11-20T16:16:02;4.80;;;2.23;;
3847;SDS011;1939;48.720;9.166;2022-11-20T16:18:30;2.83;;;2.10;;
3847;SDS011;1939;48.720;9.166;2022-11-20T16:20:55;3.23;;;2.23;;
3847;SDS011;1939;48.720;9.166;2022-11-20T16:23:21;2.63;;;2.37;;
3847;SDS011;1939;48.720;9.166;2022-11-20T16:25:46;4.00;;;2.10;;
3847;SDS011;1939;48.720;9.166;2022-11-20T16:28:12;3.03;;;2.50;;